sensor_id;sensor_type;location;lat;lon;timestamp;pressure;altitude;pressure_sealevel;temperature;humidity
16094;BME280;8151;47.824;12.092;2023-06-14T00:00:16;95802.19;;;16.81;41.61
16094;BME280;8151;47.824;12.092;2023-06-14T00:02:45;95800.75;;;16.79;41.91
16094;BME280;8151;47.824;12.092;2023-06-14T00:05:14;95802.69;;;16.71;41.94
16094;BME280;8151;47.824;12.092;2023-06-14T00:07:42;95810.16;;;16.63;42.46
16094;BME280;8151;47.824;12.092;2023-06-14T00:10:11;95809.56;;;16.61;42.59
16094;BME280;8151;47.824;12.092;2023-06-14T00:12:41;95808.44;;;16.50;42.90
16094;BME280;8151;47.824;12.092;2023-06-14T00:15:10;95809.16;;;16.39;43.26
16094;BME280;8151;47.824;12.092;2023-06-14T00:17:39;95812.09;;;16.30;43.24
16094;BME280;8151;47.824;12.092;2023-06-14T00:20:09;95802.75;;;16.14;43.75
16094;BME280;8151;47.824;12.092;2023-06-14T00:22:37;95801.34;;;16.12;43.36
16094;BME280;8151;47.824;12.092;2023-06-14T00:25:06;95798.59;;;16.19;43.29
16094;BME280;8151;47.824;12.092;2023-06-14T00:27:55;95792.31;;;16.13;43.19
16094;BME280;8151;47.824;12.092;2023-06-14T00:30:28;95792.94;;;16.08;43.23
16094;BME280;8151;47.824;12.092;2023-06-14T00:32:58;95794.91;;;15.94;43.37
16094;BME280;8151;47.824;12.092;2023-06-14T00:35:27;95801.09;;;15.88;43.87
16094;BME280;8151;47.824;12.092;2023-06-14T00:37:55;95799.50;;;15.81;43.94
16094;BME280;8151;47.824;12.092;2023-06-14T00:40:24;95804.06;;;15.73;43.97
16094;BME280;8151;47.824;12.092;2023-06-14T00:42:52;95803.88;;;15.62;43.97
16094;BME280;8151;47.824;12.092;2023-06-14T00:45:21;95808.44;;;15.54;43.93
16094;BME280;8151;47.824;12.092;2023-06-14T00:47:51;95807.06;;;15.39;44.39
16094;BME280;8151;47.824;12.092;2023-06-14T00:50:23;95800.38;;;15.23;44.70
16094;BME280;8151;47.824;12.092;2023-06-14T00:52:52;95805.09;;;15.21;44.79
16094;BME280;8151;47.824;12.092;2023-06-14T00:55:21;95805.50;;;15.18;44.77
16094;BME280;8151;47.824;12.092;2023-06-14T00:57:49;95798.16;;;15.13;44.35
16094;BME280;8151;47.824;12.092;2023-06-14T01:00:18;95801.63;;;15.13;44.58
16094;BME280;8151;47.824;12.092;2023-06-14T01:02:46;95798.38;;;15.11;44.58
16094;BME280;8151;47.824;12.092;2023-06-14T01:05:18;95802.44;;;15.14;44.79
16094;BME280;8151;47.824;12.092;2023-06-14T01:07:56;95790.97;;;15.20;44.79
16094;BME280;8151;47.824;12.092;2023-06-14T01:10:41;95798.13;;;15.20;44.78
16094;BME280;8151;47.824;12.092;2023-06-14T01:13:17;95789.31;;;15.26;44.41
16094;BME280;8151;47.824;12.092;2023-06-14T01:15:48;95793.16;;;15.36;44.45
16094;BME280;8151;47.824;12.092;2023-06-14T01:18:18;95796.59;;;15.44;44.38
16094;BME280;8151;47.824;12.092;2023-06-14T01:20:48;95803.09;;;15.54;44.19
16094;BME280;8151;47.824;12.092;2023-06-14T01:23:20;95792.41;;;15.61;44.36
16094;BME280;8151;47.824;12.092;2023-06-14T01:25:49;95798.34;;;15.63;44.29
16094;BME280;8151;47.824;12.092;2023-06-14T01:28:21;95804.34;;;15.52;44.35
16094;BME280;8151;47.824;12.092;2023-06-14T01:30:52;95796.84;;;15.35;45.00
16094;BME280;8151;47.824;12.092;2023-06-14T01:33:24;95801.00;;;15.25;45.21
16094;BME280;8151;47.824;12.092;2023-06-14T01:35:55;95795.94;;;15.03;45.70
16094;BME280;8151;47.824;12.092;2023-06-14T01:38:26;95792.09;;;14.79;45.86
16094;BME280;8151;47.824;12.092;2023-06-14T01:40:56;95792.97;;;14.66;46.29
16094;BME280;8151;47.824;12.092;2023-06-14T01:43:28;95794.81;;;14.59;46.23
16094;BME280;8151;47.824;12.092;2023-06-14T01:45:58;95793.41;;;14.56;46.16
16094;BME280;8151;47.824;12.092;2023-06-14T01:48:28;95790.09;;;14.54;45.98
16094;BME280;8151;47.824;12.092;2023-06-14T01:50:56;95781.09;;;14.62;45.79
16094;BME280;8151;47.824;12.092;2023-06-14T01:53:26;95779.84;;;14.65;45.81
16094;BME280;8151;47.824;12.092;2023-06-14T01:55:55;95778.00;;;14.72;45.67
16094;BME280;8151;47.824;12.092;2023-06-14T01:58:23;95785.19;;;14.71;45.71
16094;BME280;8151;47.824;12.092;2023-06-14T02:00:53;95789.25;;;14.81;45.67
16094;BME280;8151;47.824;12.092;2023-06-14T02:03:24;95793.56;;;14.82;45.57
16094;BME280;8151;47.824;12.092;2023-06-14T02:05:52;95795.41;;;14.81;45.53
16094;BME280;8151;47.824;12.092;2023-06-14T02:08:21;95790.88;;;14.82;45.59
16094;BME280;8151;47.824;12.092;2023-06-14T02:10:52;95790.06;;;14.81;45.53
16094;BME280;8151;47.824;12.092;2023-06-14T02:13:20;95798.25;;;14.86;45.52
16094;BME280;8151;47.824;12.092;2023-06-14T02:15:49;95792.50;;;14.83;45.49
16094;BME280;8151;47.824;12.092;2023-06-14T02:18:23;95792.75;;;14.81;45.78
16094;BME280;8151;47.824;12.092;2023-06-14T02:20:51;95801.75;;;14.80;45.71
16094;BME280;8151;47.824;12.092;2023-06-14T02:23:20;95796.00;;;14.83;45.95
16094;BME280;8151;47.824;12.092;2023-06-14T02:25:48;95793.72;;;14.87;45.87
16094;BME280;8151;47.824;12.092;2023-06-14T02:28:18;95793.72;;;14.87;45.75
16094;BME280;8151;47.824;12.092;2023-06-14T02:30:47;95799.47;;;14.90;45.87
16094;BME280;8151;47.824;12.092;2023-06-14T02:33:16;95806.63;;;14.90;45.91
16094;BME280;8151;47.824;12.092;2023-06-14T02:35:44;95799.25;;;14.92;45.80
16094;BME280;8151;47.824;12.092;2023-06-14T02:38:13;95794.38;;;14.89;45.85
16094;BME280;8151;47.824;12.092;2023-06-14T02:40:41;95798.69;;;14.83;46.25
16094;BME280;8151;47.824;12.092;2023-06-14T02:43:10;95796.22;;;14.82;46.08
16094;BME280;8151;47.824;12.092;2023-06-14T02:45:40;95793.34;;;14.76;46.34
16094;BME280;8151;47.824;12.092;2023-06-14T02:48:08;95803.00;;;14.77;45.95
16094;BME280;8151;47.824;12.092;2023-06-14T02:50:37;95797.66;;;14.77;46.29
16094;BME280;8151;47.824;12.092;2023-06-14T02:53:06;95798.28;;;14.73;46.15
16094;BME280;8151;47.824;12.092;2023-06-14T02:55:35;95795.59;;;14.73;46.43
16094;BME280;8151;47.824;12.092;2023-06-14T02:58:07;95803.00;;;14.64;46.51
16094;BME280;8151;47.824;12.092;2023-06-14T03:00:36;95804.22;;;14.42;46.95
16094;BME280;8151;47.824;12.092;2023-06-14T03:03:07;95809.38;;;14.23;47.35
16094;BME280;8151;47.824;12.092;2023-06-14T03:05:42;95806.06;;;13.94;47.54
16094;BME280;8151;47.824;12.092;2023-06-14T03:08:13;95809.13;;;13.85;47.84
16094;BME280;8151;47.824;12.092;2023-06-14T03:10:44;95801.16;;;13.85;47.85
16094;BME280;8151;47.824;12.092;2023-06-14T03:13:12;95806.03;;;13.81;47.82
16094;BME280;8151;47.824;12.092;2023-06-14T03:15:41;95805.44;;;13.79;47.81
16094;BME280;8151;47.824;12.092;2023-06-14T03:18:11;95802.34;;;13.82;47.72
16094;BME280;8151;47.824;12.092;2023-06-14T03:20:40;95796.22;;;13.82;47.82
16094;BME280;8151;47.824;12.092;2023-06-14T03:23:16;95809.31;;;13.76;47.58
16094;BME280;8151;47.824;12.092;2023-06-14T03:25:44;95815.22;;;13.72;47.76
16094;BME280;8151;47.824;12.092;2023-06-14T03:28:13;95814.00;;;13.68;47.68
16094;BME280;8151;47.824;12.092;2023-06-14T03:30:42;95808.66;;;13.68;47.73
16094;BME280;8151;47.824;12.092;2023-06-14T03:33:12;95814.03;;;13.81;47.36
16094;BME280;8151;47.824;12.092;2023-06-14T03:35:40;95815.88;;;14.01;46.98
16094;BME280;8151;47.824;12.092;2023-06-14T03:38:09;95811.59;;;14.13;47.13
16094;BME280;8151;47.824;12.092;2023-06-14T03:40:37;95807.28;;;14.18;46.74
16094;BME280;8151;47.824;12.092;2023-06-14T03:43:06;95812.19;;;14.15;46.90
16094;BME280;8151;47.824;12.092;2023-06-14T03:45:34;95821.81;;;14.09;47.08
16094;BME280;8151;47.824;12.092;2023-06-14T03:48:03;95822.66;;;14.10;47.08
16094;BME280;8151;47.824;12.092;2023-06-14T03:50:35;95828.19;;;14.08;46.97
16094;BME280;8151;47.824;12.092;2023-06-14T03:53:05;95834.47;;;13.87;47.50
16094;BME280;8151;47.824;12.092;2023-06-14T03:55:34;95836.09;;;13.75;47.84
16094;BME280;8151;47.824;12.092;2023-06-14T03:58:22;95834.22;;;13.62;48.09
16094;BME280;8151;47.824;12.092;2023-06-14T04:00:51;95835.63;;;13.51;48.54
16094;BME280;8151;47.824;12.092;2023-06-14T04:03:19;95840.72;;;13.46;48.68
16094;BME280;8151;47.824;12.092;2023-06-14T04:05:52;95837.81;;;13.41;48.82
16094;BME280;8151;47.824;12.092;2023-06-14T04:08:24;95848.38;;;13.28;49.19
16094;BME280;8151;47.824;12.092;2023-06-14T04:10:52;95852.69;;;13.29;48.81
16094;BME280;8151;47.824;12.092;2023-06-14T04:13:24;95847.84;;;13.39;48.48
16094;BME280;8151;47.824;12.092;2023-06-14T04:15:52;95845.00;;;13.47;48.21
16094;BME280;8151;47.824;12.092;2023-06-14T04:18:21;95859.94;;;13.55;48.17
16094;BME280;8151;47.824;12.092;2023-06-14T04:20:52;95860.00;;;13.62;47.88
16094;BME280;8151;47.824;12.092;2023-06-14T04:23:21;95862.03;;;13.66;47.78
16094;BME280;8151;47.824;12.092;2023-06-14T04:25:50;95866.78;;;13.71;47.70
16094;BME280;8151;47.824;12.092;2023-06-14T04:28:19;95868.81;;;13.82;47.71
16094;BME280;8151;47.824;12.092;2023-06-14T04:30:47;95862.97;;;14.00;47.35
16094;BME280;8151;47.824;12.092;2023-06-14T04:33:15;95870.34;;;14.11;47.11
16094;BME280;8151;47.824;12.092;2023-06-14T04:35:45;95867.91;;;14.23;46.77
16094;BME280;8151;47.824;12.092;2023-06-14T04:38:16;95869.94;;;14.34;46.58
16094;BME280;8151;47.824;12.092;2023-06-14T04:40:45;95872.00;;;14.39;46.65
16094;BME280;8151;47.824;12.092;2023-06-14T04:43:14;95877.13;;;14.47;46.65
16094;BME280;8151;47.824;12.092;2023-06-14T04:45:44;95880.81;;;14.60;46.48
16094;BME280;8151;47.824;12.092;2023-06-14T04:48:13;95879.78;;;14.67;46.71
16094;BME280;8151;47.824;12.092;2023-06-14T04:50:42;95888.81;;;14.66;46.84
16094;BME280;8151;47.824;12.092;2023-06-14T04:53:10;95888.81;;;14.66;46.82
16094;BME280;8151;47.824;12.092;2023-06-14T04:55:41;95884.09;;;14.62;47.35
16094;BME280;8151;47.824;12.092;2023-06-14T04:58:12;95884.91;;;14.69;47.05
16094;BME280;8151;47.824;12.092;2023-06-14T05:00:41;95892.91;;;14.75;47.08
16094;BME280;8151;47.824;12.092;2023-06-14T05:03:10;95900.50;;;14.72;47.29
16094;BME280;8151;47.824;12.092;2023-06-14T05:05:40;95899.69;;;14.71;47.15
16094;BME280;8151;47.824;12.092;2023-06-14T05:08:09;95896.19;;;14.77;47.39
16094;BME280;8151;47.824;12.092;2023-06-14T05:10:38;95897.00;;;14.91;47.41
16094;BME280;8151;47.824;12.092;2023-06-14T05:13:08;95906.81;;;15.04;47.28
16094;BME280;8151;47.824;12.092;2023-06-14T05:15:37;95903.13;;;15.05;47.54
16094;BME280;8151;47.824;12.092;2023-06-14T05:18:06;95907.03;;;14.96;47.28
16094;BME280;8151;47.824;12.092;2023-06-14T05:20:36;95901.09;;;14.94;47.52
16094;BME280;8151;47.824;12.092;2023-06-14T05:23:05;95905.56;;;15.00;47.90
16094;BME280;8151;47.824;12.092;2023-06-14T05:25:33;95901.47;;;15.04;47.73
16094;BME280;8151;47.824;12.092;2023-06-14T05:28:03;95899.81;;;15.10;47.94
16094;BME280;8151;47.824;12.092;2023-06-14T05:30:33;95910.47;;;15.10;47.95
16094;BME280;8151;47.824;12.092;2023-06-14T05:33:02;95906.78;;;15.18;47.91
16094;BME280;8151;47.824;12.092;2023-06-14T05:35:31;95909.84;;;15.21;48.09
16094;BME280;8151;47.824;12.092;2023-06-14T05:37:59;95908.59;;;15.30;47.76
16094;BME280;8151;47.824;12.092;2023-06-14T05:40:28;95908.19;;;15.33;47.67
16094;BME280;8151;47.824;12.092;2023-06-14T05:42:56;95913.28;;;15.42;47.77
16094;BME280;8151;47.824;12.092;2023-06-14T05:45:25;95921.25;;;15.48;47.52
16094;BME280;8151;47.824;12.092;2023-06-14T05:47:55;95913.66;;;15.59;47.51
16094;BME280;8151;47.824;12.092;2023-06-14T05:50:34;95912.81;;;15.65;47.01
16094;BME280;8151;47.824;12.092;2023-06-14T05:53:02;95912.59;;;15.73;47.16
16094;BME280;8151;47.824;12.092;2023-06-14T05:55:30;95906.41;;;15.79;47.07
16094;BME280;8151;47.824;12.092;2023-06-14T05:57:59;95916.44;;;15.84;47.26
16094;BME280;8151;47.824;12.092;2023-06-14T06:00:27;95914.16;;;15.87;46.92
16094;BME280;8151;47.824;12.092;2023-06-14T06:02:57;95916.22;;;15.92;46.99
16094;BME280;8151;47.824;12.092;2023-06-14T06:05:26;95907.34;;;15.98;47.14
16094;BME280;8151;47.824;12.092;2023-06-14T06:07:54;95910.22;;;16.03;46.92
16094;BME280;8151;47.824;12.092;2023-06-14T06:10:23;95916.50;;;16.09;46.77
16094;BME280;8151;47.824;12.092;2023-06-14T06:12:52;95916.69;;;16.14;46.74
16094;BME280;8151;47.824;12.092;2023-06-14T06:15:21;95921.78;;;16.22;46.88
16094;BME280;8151;47.824;12.092;2023-06-14T06:17:50;95919.91;;;16.29;46.71
16094;BME280;8151;47.824;12.092;2023-06-14T06:20:25;95915.75;;;16.33;46.53
16094;BME280;8151;47.824;12.092;2023-06-14T06:22:58;95924.56;;;16.41;46.58
16094;BME280;8151;47.824;12.092;2023-06-14T06:25:27;95917.94;;;16.50;46.01
16094;BME280;8151;47.824;12.092;2023-06-14T06:27:56;95922.78;;;16.60;46.20
16094;BME280;8151;47.824;12.092;2023-06-14T06:30:24;95924.38;;;16.67;46.28
16094;BME280;8151;47.824;12.092;2023-06-14T06:32:53;95921.63;;;16.74;46.26
16094;BME280;8151;47.824;12.092;2023-06-14T06:35:24;95927.38;;;16.78;45.96
16094;BME280;8151;47.824;12.092;2023-06-14T06:37:55;95934.53;;;16.84;45.78
16094;BME280;8151;47.824;12.092;2023-06-14T06:40:24;95929.19;;;16.84;45.72
16094;BME280;8151;47.824;12.092;2023-06-14T06:42:53;95932.25;;;16.87;45.58
16094;BME280;8151;47.824;12.092;2023-06-14T06:45:21;95931.38;;;16.93;45.66
16094;BME280;8151;47.824;12.092;2023-06-14T06:47:52;95937.28;;;17.02;45.80
16094;BME280;8151;47.824;12.092;2023-06-14T06:50:20;95934.09;;;17.12;45.48
16094;BME280;8151;47.824;12.092;2023-06-14T06:52:52;95932.41;;;17.18;45.47
16094;BME280;8151;47.824;12.092;2023-06-14T06:55:20;95935.00;;;17.24;45.58
16094;BME280;8151;47.824;12.092;2023-06-14T06:57:49;95942.72;;;17.32;45.55
16094;BME280;8151;47.824;12.092;2023-06-14T07:00:20;95940.00;;;17.39;45.68
16094;BME280;8151;47.824;12.092;2023-06-14T07:02:48;95931.31;;;17.44;45.94
16094;BME280;8151;47.824;12.092;2023-06-14T07:05:18;95929.59;;;17.49;46.14
16094;BME280;8151;47.824;12.092;2023-06-14T07:07:46;95934.88;;;17.56;46.41
16094;BME280;8151;47.824;12.092;2023-06-14T07:10:16;95937.31;;;17.58;46.50
16094;BME280;8151;47.824;12.092;2023-06-14T07:12:45;95944.97;;;17.54;46.59
16094;BME280;8151;47.824;12.092;2023-06-14T07:15:14;95945.94;;;17.60;46.78
16094;BME280;8151;47.824;12.092;2023-06-14T07:17:43;95947.06;;;17.70;46.74
16094;BME280;8151;47.824;12.092;2023-06-14T07:20:12;95945.47;;;17.81;46.64
16094;BME280;8151;47.824;12.092;2023-06-14T07:22:42;95948.34;;;17.86;46.58
16094;BME280;8151;47.824;12.092;2023-06-14T07:25:12;95957.50;;;17.97;46.86
16094;BME280;8151;47.824;12.092;2023-06-14T07:27:45;95949.97;;;18.06;46.60
16094;BME280;8151;47.824;12.092;2023-06-14T07:30:14;95949.44;;;18.16;46.57
16094;BME280;8151;47.824;12.092;2023-06-14T07:32:52;95954.72;;;18.22;46.53
16094;BME280;8151;47.824;12.092;2023-06-14T07:35:21;95948.81;;;18.32;46.61
16094;BME280;8151;47.824;12.092;2023-06-14T07:37:50;95946.16;;;18.44;46.56
16094;BME280;8151;47.824;12.092;2023-06-14T07:40:18;95950.13;;;18.53;46.50
16094;BME280;8151;47.824;12.092;2023-06-14T07:42:48;95948.78;;;18.62;46.55
16094;BME280;8151;47.824;12.092;2023-06-14T07:45:17;95947.84;;;18.68;46.48
16094;BME280;8151;47.824;12.092;2023-06-14T07:47:46;95952.31;;;18.75;46.32
16094;BME280;8151;47.824;12.092;2023-06-14T07:50:15;95951.41;;;18.81;46.36
16094;BME280;8151;47.824;12.092;2023-06-14T07:52:43;95950.13;;;18.83;46.13
16094;BME280;8151;47.824;12.092;2023-06-14T07:55:15;95953.03;;;18.82;45.96
16094;BME280;8151;47.824;12.092;2023-06-14T07:57:44;95946.28;;;18.91;45.76
16094;BME280;8151;47.824;12.092;2023-06-14T08:00:15;95948.75;;;19.04;45.61
16094;BME280;8151;47.824;12.092;2023-06-14T08:02:49;95949.81;;;19.15;45.46
16094;BME280;8151;47.824;12.092;2023-06-14T08:05:25;95946.91;;;19.28;45.27
16094;BME280;8151;47.824;12.092;2023-06-14T08:07:54;95940.84;;;19.33;45.31
16094;BME280;8151;47.824;12.092;2023-06-14T08:10:23;95948.31;;;19.43;45.40
16094;BME280;8151;47.824;12.092;2023-06-14T08:12:51;95948.97;;;19.50;45.44
16094;BME280;8151;47.824;12.092;2023-06-14T08:15:21;95941.28;;;19.54;45.65
16094;BME280;8151;47.824;12.092;2023-06-14T08:17:50;95951.69;;;19.62;45.61
16094;BME280;8151;47.824;12.092;2023-06-14T08:20:19;95950.25;;;19.71;45.75
16094;BME280;8151;47.824;12.092;2023-06-14T08:22:47;95950.50;;;19.81;45.68
16094;BME280;8151;47.824;12.092;2023-06-14T08:25:15;95942.31;;;19.88;45.37
16094;BME280;8151;47.824;12.092;2023-06-14T08:27:45;95946.50;;;19.96;45.43
16094;BME280;8151;47.824;12.092;2023-06-14T08:30:14;95941.09;;;20.08;45.46
16094;BME280;8151;47.824;12.092;2023-06-14T08:32:45;95945.84;;;20.17;45.81
16094;BME280;8151;47.824;12.092;2023-06-14T08:35:19;95956.69;;;20.22;45.48
16094;BME280;8151;47.824;12.092;2023-06-14T08:37:49;95954.59;;;20.24;45.66
16094;BME280;8151;47.824;12.092;2023-06-14T08:40:19;95948.72;;;20.27;45.24
16094;BME280;8151;47.824;12.092;2023-06-14T08:42:50;95959.72;;;20.26;45.22
16094;BME280;8151;47.824;12.092;2023-06-14T08:45:20;95951.50;;;20.33;45.32
16094;BME280;8151;47.824;12.092;2023-06-14T08:47:54;95951.56;;;20.50;45.42
16094;BME280;8151;47.824;12.092;2023-06-14T08:50:28;95949.06;;;20.60;45.33
16094;BME280;8151;47.824;12.092;2023-06-14T08:53:00;95949.50;;;20.69;45.24
16094;BME280;8151;47.824;12.092;2023-06-14T08:55:31;95957.50;;;20.80;45.22
16094;BME280;8151;47.824;12.092;2023-06-14T08:58:07;95956.59;;;20.92;44.66
16094;BME280;8151;47.824;12.092;2023-06-14T09:00:36;95952.34;;;21.13;44.18
16094;BME280;8151;47.824;12.092;2023-06-14T09:03:07;95946.88;;;21.24;43.75
16094;BME280;8151;47.824;12.092;2023-06-14T09:05:40;95956.84;;;21.41;42.96
16094;BME280;8151;47.824;12.092;2023-06-14T09:08:09;95945.81;;;21.59;41.91
16094;BME280;8151;47.824;12.092;2023-06-14T09:10:39;95946.91;;;21.80;40.93
16094;BME280;8151;47.824;12.092;2023-06-14T09:13:08;95948.50;;;21.98;40.49
16094;BME280;8151;47.824;12.092;2023-06-14T09:15:37;95944.50;;;22.06;40.24
16094;BME280;8151;47.824;12.092;2023-06-14T09:18:07;95937.13;;;22.18;39.96
16094;BME280;8151;47.824;12.092;2023-06-14T09:20:35;95941.03;;;22.28;39.87
16094;BME280;8151;47.824;12.092;2023-06-14T09:23:04;95947.31;;;22.33;39.64
16094;BME280;8151;47.824;12.092;2023-06-14T09:25:41;95944.72;;;22.44;39.26
16094;BME280;8151;47.824;12.092;2023-06-14T09:28:11;95946.38;;;22.50;39.25
16094;BME280;8151;47.824;12.092;2023-06-14T09:30:40;95940.84;;;22.61;38.94
16094;BME280;8151;47.824;12.092;2023-06-14T09:33:10;95946.59;;;22.70;38.75
16094;BME280;8151;47.824;12.092;2023-06-14T09:35:40;95954.47;;;22.77;38.66
16094;BME280;8151;47.824;12.092;2023-06-14T09:38:08;95948.03;;;22.83;38.28
16094;BME280;8151;47.824;12.092;2023-06-14T09:40:37;95946.50;;;22.92;37.96
16094;BME280;8151;47.824;12.092;2023-06-14T09:43:06;95937.69;;;23.02;37.44
16094;BME280;8151;47.824;12.092;2023-06-14T09:45:38;95946.72;;;23.13;37.13
16094;BME280;8151;47.824;12.092;2023-06-14T09:48:09;95952.75;;;23.25;36.82
16094;BME280;8151;47.824;12.092;2023-06-14T09:50:39;95946.84;;;23.33;36.60
16094;BME280;8151;47.824;12.092;2023-06-14T09:53:10;95955.00;;;23.38;36.74
16094;BME280;8151;47.824;12.092;2023-06-14T09:55:41;95954.25;;;23.48;36.55
16094;BME280;8151;47.824;12.092;2023-06-14T09:58:10;95950.53;;;23.59;36.23
16094;BME280;8151;47.824;12.092;2023-06-14T10:00:40;95944.94;;;23.71;35.34
16094;BME280;8151;47.824;12.092;2023-06-14T10:03:21;95947.72;;;23.82;34.80
16094;BME280;8151;47.824;12.092;2023-06-14T10:05:50;95946.69;;;23.93;34.80
16094;BME280;8151;47.824;12.092;2023-06-14T10:08:19;95945.63;;;23.99;34.73
16094;BME280;8151;47.824;12.092;2023-06-14T10:10:53;95938.91;;;24.07;34.12
16094;BME280;8151;47.824;12.092;2023-06-14T10:13:24;95935.69;;;24.10;34.17
16094;BME280;8151;47.824;12.092;2023-06-14T10:15:58;95944.88;;;24.19;34.27
16094;BME280;8151;47.824;12.092;2023-06-14T10:18:38;95943.28;;;24.18;33.95
16094;BME280;8151;47.824;12.092;2023-06-14T10:21:15;95935.72;;;24.20;33.93
16094;BME280;8151;47.824;12.092;2023-06-14T10:23:46;95932.78;;;24.32;33.95
16094;BME280;8151;47.824;12.092;2023-06-14T10:26:20;95931.44;;;24.50;33.60
16094;BME280;8151;47.824;12.092;2023-06-14T10:28:59;95926.09;;;24.60;33.23
16094;BME280;8151;47.824;12.092;2023-06-14T10:31:42;95936.38;;;24.73;32.76
16094;BME280;8151;47.824;12.092;2023-06-14T10:34:21;95925.88;;;24.87;32.59
16094;BME280;8151;47.824;12.092;2023-06-14T10:37:02;95931.00;;;24.94;32.27
16094;BME280;8151;47.824;12.092;2023-06-14T10:39:36;95924.22;;;25.02;32.14
16094;BME280;8151;47.824;12.092;2023-06-14T10:42:08;95929.34;;;25.08;32.35
16094;BME280;8151;47.824;12.092;2023-06-14T10:44:45;95924.22;;;25.12;31.93
16094;BME280;8151;47.824;12.092;2023-06-14T10:47:27;95933.44;;;25.21;31.68
16094;BME280;8151;47.824;12.092;2023-06-14T10:50:02;95927.50;;;25.24;31.86
16094;BME280;8151;47.824;12.092;2023-06-14T10:52:33;95932.38;;;25.32;31.84
16094;BME280;8151;47.824;12.092;2023-06-14T10:55:08;95927.47;;;25.45;31.70
16094;BME280;8151;47.824;12.092;2023-06-14T10:57:44;95924.75;;;25.50;31.38
16094;BME280;8151;47.824;12.092;2023-06-14T11:00:20;95918.50;;;25.60;31.25
16094;BME280;8151;47.824;12.092;2023-06-14T11:03:36;95927.16;;;25.67;31.20
16094;BME280;8151;47.824;12.092;2023-06-14T11:06:15;95927.41;;;25.70;30.78
16094;BME280;8151;47.824;12.092;2023-06-14T11:09:19;95928.19;;;25.86;30.21
16094;BME280;8151;47.824;12.092;2023-06-14T11:11:49;95932.78;;;25.96;29.92
16094;BME280;8151;47.824;12.092;2023-06-14T11:14:19;95920.50;;;26.09;29.76
16094;BME280;8151;47.824;12.092;2023-06-14T11:16:48;95915.34;;;26.12;29.68
16094;BME280;8151;47.824;12.092;2023-06-14T11:19:17;95921.56;;;26.23;29.66
16094;BME280;8151;47.824;12.092;2023-06-14T11:21:49;95921.22;;;26.35;29.33
16094;BME280;8151;47.824;12.092;2023-06-14T11:24:17;95922.22;;;26.44;29.55
16094;BME280;8151;47.824;12.092;2023-06-14T11:26:47;95914.84;;;26.55;29.19
16094;BME280;8151;47.824;12.092;2023-06-14T11:29:16;95914.81;;;26.65;29.16
16094;BME280;8151;47.824;12.092;2023-06-14T11:31:45;95922.63;;;26.72;28.96
16094;BME280;8151;47.824;12.092;2023-06-14T11:34:13;95914.97;;;26.79;28.57
16094;BME280;8151;47.824;12.092;2023-06-14T11:36:42;95908.19;;;26.82;28.69
16094;BME280;8151;47.824;12.092;2023-06-14T11:39:14;95907.38;;;26.81;28.61
16094;BME280;8151;47.824;12.092;2023-06-14T11:41:44;95908.75;;;26.79;29.07
16094;BME280;8151;47.824;12.092;2023-06-14T11:44:14;95907.59;;;26.85;28.95
16094;BME280;8151;47.824;12.092;2023-06-14T11:46:42;95907.31;;;26.86;28.99
16094;BME280;8151;47.824;12.092;2023-06-14T11:49:13;95908.38;;;26.90;28.88
16094;BME280;8151;47.824;12.092;2023-06-14T11:51:42;95901.53;;;26.98;28.63
16094;BME280;8151;47.824;12.092;2023-06-14T11:54:11;95906.38;;;27.06;28.26
16094;BME280;8151;47.824;12.092;2023-06-14T11:56:42;95903.84;;;27.15;28.28
16094;BME280;8151;47.824;12.092;2023-06-14T11:59:13;95897.53;;;27.20;28.35
16094;BME280;8151;47.824;12.092;2023-06-14T12:01:42;95901.31;;;27.24;28.32
16094;BME280;8151;47.824;12.092;2023-06-14T12:04:14;95895.28;;;27.32;28.41
16094;BME280;8151;47.824;12.092;2023-06-14T12:06:42;95896.06;;;27.38;28.33
16094;BME280;8151;47.824;12.092;2023-06-14T12:09:11;95897.53;;;27.49;28.22
16094;BME280;8151;47.824;12.092;2023-06-14T12:11:45;95894.75;;;27.59;28.29
16094;BME280;8151;47.824;12.092;2023-06-14T12:14:14;95889.03;;;27.61;27.85
16094;BME280;8151;47.824;12.092;2023-06-14T12:16:43;95890.09;;;27.60;27.96
16094;BME280;8151;47.824;12.092;2023-06-14T12:19:13;95884.31;;;27.66;27.51
16094;BME280;8151;47.824;12.092;2023-06-14T12:21:46;95876.34;;;27.75;27.10
16094;BME280;8151;47.824;12.092;2023-06-14T12:24:16;95890.09;;;27.84;27.33
16094;BME280;8151;47.824;12.092;2023-06-14T12:26:46;95884.06;;;27.92;26.99
16094;BME280;8151;47.824;12.092;2023-06-14T12:29:15;95893.16;;;28.01;26.53
16094;BME280;8151;47.824;12.092;2023-06-14T12:31:43;95892.03;;;28.07;26.15
16094;BME280;8151;47.824;12.092;2023-06-14T12:34:12;95896.81;;;28.16;25.65
16094;BME280;8151;47.824;12.092;2023-06-14T12:36:40;95892.13;;;28.21;25.67
16094;BME280;8151;47.824;12.092;2023-06-14T12:39:12;95886.28;;;28.28;25.62
16094;BME280;8151;47.824;12.092;2023-06-14T12:41:41;95891.16;;;28.31;25.99
16094;BME280;8151;47.824;12.092;2023-06-14T12:44:11;95890.66;;;28.29;26.13
16094;BME280;8151;47.824;12.092;2023-06-14T12:46:41;95897.19;;;28.28;26.16
16094;BME280;8151;47.824;12.092;2023-06-14T12:49:10;95897.06;;;28.38;26.13
16094;BME280;8151;47.824;12.092;2023-06-14T12:51:39;95891.97;;;28.51;25.74
16094;BME280;8151;47.824;12.092;2023-06-14T12:54:10;95889.13;;;28.61;25.50
16094;BME280;8151;47.824;12.092;2023-06-14T12:56:39;95895.06;;;28.63;25.93
16094;BME280;8151;47.824;12.092;2023-06-14T12:59:08;95895.06;;;28.63;25.44
16094;BME280;8151;47.824;12.092;2023-06-14T13:01:39;95892.34;;;28.63;25.76
16094;BME280;8151;47.824;12.092;2023-06-14T13:04:08;95895.31;;;28.66;25.95
16094;BME280;8151;47.824;12.092;2023-06-14T13:06:37;95892.50;;;28.72;25.55
16094;BME280;8151;47.824;12.092;2023-06-14T13:09:06;95884.84;;;28.74;25.45
16094;BME280;8151;47.824;12.092;2023-06-14T13:11:36;95892.13;;;28.78;25.14
16094;BME280;8151;47.824;12.092;2023-06-14T13:14:04;95900.06;;;28.75;25.45
16094;BME280;8151;47.824;12.092;2023-06-14T13:16:49;95892.25;;;28.49;25.71